createdAt,value
2019-03-04T00:02:05.469Z,6.70
2019-03-04T00:04:53.038Z,6.70
2019-03-04T00:07:40.663Z,6.70
2019-03-04T00:10:28.120Z,6.60
2019-03-04T00:13:15.706Z,6.40
2019-03-04T00:16:03.094Z,6.30
2019-03-04T00:18:50.323Z,6.30
2019-03-04T00:21:37.922Z,6.20
2019-03-04T00:24:25.482Z,6.20
2019-03-04T00:27:12.869Z,6.20
2019-03-04T00:30:00.617Z,6.10
2019-03-04T00:32:48.114Z,6.10
2019-03-04T00:35:35.553Z,5.90
2019-03-04T00:38:22.979Z,5.90
2019-03-04T00:41:10.931Z,5.90
2019-03-04T00:43:58.766Z,5.90
2019-03-04T00:46:46.427Z,5.80
2019-03-04T00:49:34.094Z,5.70
2019-03-04T00:52:21.934Z,5.70
2019-03-04T00:55:09.638Z,5.70
2019-03-04T00:57:57.370Z,5.80
2019-03-04T01:00:44.877Z,5.90
2019-03-04T01:03:32.242Z,5.90
2019-03-04T01:06:20.007Z,5.90
2019-03-04T01:09:10.565Z,6.00
2019-03-04T01:11:58.029Z,6.00
2019-03-04T01:14:45.085Z,5.90
2019-03-04T01:17:32.459Z,6.00
2019-03-04T01:20:20.306Z,5.90
2019-03-04T01:23:08.050Z,5.80
2019-03-04T01:25:55.343Z,5.70
2019-03-04T01:28:42.967Z,5.60
2019-03-04T01:31:30.842Z,5.60
2019-03-04T01:34:18.485Z,5.60
2019-03-04T01:37:06.126Z,5.60
2019-03-04T01:39:53.773Z,5.70
2019-03-04T01:42:41.963Z,5.60
2019-03-04T01:45:29.710Z,5.50
2019-03-04T01:48:17.630Z,5.40
2019-03-04T01:51:05.391Z,5.30
2019-03-04T01:53:52.906Z,5.30
2019-03-04T01:56:39.923Z,5.20
2019-03-04T01:59:27.214Z,5.20
2019-03-04T02:02:14.389Z,5.00
2019-03-04T02:05:01.958Z,5.00
2019-03-04T02:07:49.428Z,4.90
2019-03-04T02:10:37.110Z,4.80
2019-03-04T02:13:25.154Z,4.70
2019-03-04T02:16:12.857Z,4.80
2019-03-04T02:19:00.537Z,5.00
2019-03-04T02:21:47.713Z,4.90
2019-03-04T02:24:34.921Z,4.90
2019-03-04T02:27:22.262Z,4.70
2019-03-04T02:30:13.145Z,4.80
2019-03-04T02:33:00.677Z,4.90
2019-03-04T02:35:48.466Z,5.10
2019-03-04T02:38:36.044Z,5.20
2019-03-04T02:41:23.897Z,5.20
2019-03-04T02:44:11.577Z,5.30
2019-03-04T02:46:59.138Z,5.30
2019-03-04T02:49:46.746Z,5.30
2019-03-04T02:52:34.086Z,5.20
2019-03-04T02:55:21.779Z,5.20
2019-03-04T02:58:09.291Z,5.10
2019-03-04T03:00:56.709Z,5.00
2019-03-04T03:03:44.062Z,4.90
2019-03-04T03:06:32.128Z,4.80
2019-03-04T03:09:19.745Z,4.70
2019-03-04T03:12:07.391Z,4.60
2019-03-04T03:14:54.480Z,4.60
2019-03-04T03:17:43.242Z,4.70
2019-03-04T03:20:30.643Z,4.70
2019-03-04T03:23:17.698Z,4.70
2019-03-04T03:26:05.127Z,4.70
2019-03-04T03:28:52.386Z,4.70
2019-03-04T03:31:39.770Z,4.70
2019-03-04T03:34:27.069Z,4.50
2019-03-04T03:37:14.636Z,4.40
2019-03-04T03:40:02.170Z,4.30
2019-03-04T03:42:50.074Z,4.20
2019-03-04T03:45:37.969Z,4.20
2019-03-04T03:48:25.460Z,4.10
2019-03-04T03:51:13.105Z,4.00
2019-03-04T03:54:00.929Z,4.10
2019-03-04T03:56:48.486Z,4.20
2019-03-04T03:59:36.130Z,4.20
2019-03-04T04:02:23.194Z,4.20
2019-03-04T04:05:10.427Z,4.20
2019-03-04T04:07:58.284Z,4.10
2019-03-04T04:10:45.622Z,4.00
2019-03-04T04:13:33.301Z,3.90
2019-03-04T04:16:20.648Z,3.80
2019-03-04T04:19:08.219Z,3.70
2019-03-04T04:21:55.796Z,3.70
2019-03-04T04:24:43.497Z,3.80
2019-03-04T04:27:31.382Z,3.90
2019-03-04T04:30:20.654Z,4.10
2019-03-04T04:33:08.066Z,4.20
2019-03-04T04:35:55.333Z,4.20
2019-03-04T04:38:42.770Z,4.30
2019-03-04T04:41:30.019Z,4.40
2019-03-04T04:44:17.586Z,4.30
2019-03-04T04:47:08.464Z,4.40
2019-03-04T04:49:55.861Z,4.50
2019-03-04T04:52:43.231Z,4.60
2019-03-04T04:55:30.641Z,4.70
2019-03-04T04:58:17.693Z,4.70
2019-03-04T05:01:04.881Z,4.70
2019-03-04T05:03:52.205Z,4.70
2019-03-04T05:06:39.806Z,4.60
2019-03-04T05:09:27.486Z,4.60
2019-03-04T05:12:14.579Z,4.70
2019-03-04T05:15:01.704Z,4.70
2019-03-04T05:17:48.992Z,4.60
2019-03-04T05:20:36.877Z,4.60
2019-03-04T05:23:30.956Z,4.50
2019-03-04T05:26:18.707Z,4.50
2019-03-04T05:29:06.354Z,4.40
2019-03-04T05:31:53.677Z,4.40
2019-03-04T05:34:41.457Z,4.40
2019-03-04T05:37:29.007Z,4.40
2019-03-04T05:40:17.082Z,4.50
2019-03-04T05:43:04.561Z,4.50
2019-03-04T05:45:51.660Z,4.40
2019-03-04T05:48:39.005Z,4.40
2019-03-04T05:51:26.524Z,4.40
2019-03-04T05:54:14.682Z,4.30
2019-03-04T05:57:01.777Z,4.50
2019-03-04T05:59:49.348Z,4.60
2019-03-04T06:02:36.366Z,4.40
2019-03-04T06:05:23.672Z,4.40
2019-03-04T06:08:11.232Z,4.40
2019-03-04T06:10:58.789Z,4.40
2019-03-04T06:13:46.327Z,4.40
2019-03-04T06:16:34.153Z,4.60
2019-03-04T06:19:21.923Z,4.50
2019-03-04T06:22:09.416Z,4.50
2019-03-04T06:24:56.624Z,4.50
2019-03-04T06:27:43.974Z,4.50
2019-03-04T06:30:31.755Z,4.50
2019-03-04T06:33:19.361Z,4.50
2019-03-04T06:36:06.762Z,4.60
2019-03-04T06:38:54.059Z,4.90
2019-03-04T06:41:41.326Z,5.00
2019-03-04T06:44:28.878Z,5.00
2019-03-04T06:47:16.480Z,5.00
2019-03-04T06:50:04.142Z,5.10
2019-03-04T06:52:51.574Z,5.10
2019-03-04T06:56:21.116Z,5.20
2019-03-04T06:59:30.853Z,5.20
2019-03-04T07:02:18.327Z,5.30
2019-03-04T07:05:36.398Z,5.40
2019-03-04T07:09:14.516Z,5.50
2019-03-04T07:12:02.086Z,5.60
2019-03-04T07:14:49.176Z,5.70
2019-03-04T07:17:36.505Z,6.00
2019-03-04T07:20:24.044Z,6.20
2019-03-04T07:23:11.535Z,6.40
2019-03-04T07:25:59.149Z,6.50
2019-03-04T07:28:46.640Z,6.60
2019-03-04T07:31:33.795Z,6.80
2019-03-04T07:34:21.184Z,6.80
2019-03-04T07:37:08.824Z,6.90
2019-03-04T07:39:56.297Z,7.00
2019-03-04T07:42:43.893Z,7.10
2019-03-04T07:45:31.532Z,7.20
2019-03-04T07:48:19.054Z,7.40
2019-03-04T07:51:12.265Z,7.40
2019-03-04T07:54:00.105Z,7.50
2019-03-04T07:56:47.519Z,7.60
2019-03-04T07:59:34.684Z,7.80
2019-03-04T08:02:21.794Z,7.80
2019-03-04T08:05:09.332Z,7.80
2019-03-04T08:07:56.875Z,7.90
2019-03-04T08:11:19.865Z,8.00
2019-03-04T08:14:07.311Z,8.20
2019-03-04T08:16:55.043Z,8.80
2019-03-04T08:19:42.342Z,8.90
2019-03-04T08:22:30.282Z,9.20
2019-03-04T08:25:18.199Z,9.20
2019-03-04T08:28:06.905Z,9.50
2019-03-04T08:30:54.251Z,9.70
2019-03-04T08:33:46.610Z,9.80
2019-03-04T08:36:34.953Z,10.00
2019-03-04T08:39:26.338Z,10.20
2019-03-04T08:42:15.214Z,11.30
2019-03-04T08:45:03.115Z,11.70
2019-03-04T08:47:53.162Z,11.50
2019-03-04T08:50:41.192Z,11.30
2019-03-04T09:07:56.978Z,10.50
2019-03-04T09:10:47.571Z,10.50
2019-03-04T09:13:40.432Z,10.30
2019-03-04T09:16:30.924Z,10.30
2019-03-04T09:19:44.669Z,10.30
2019-03-04T09:22:41.191Z,10.40
2019-03-04T09:25:46.239Z,10.60
2019-03-04T09:28:51.837Z,10.70
2019-03-04T09:34:57.264Z,10.50
2019-03-04T09:37:55.533Z,10.30
2019-03-04T09:40:49.716Z,10.30
2019-03-04T09:43:50.168Z,10.30
2019-03-04T09:46:46.579Z,10.50
2019-03-04T09:49:37.493Z,10.60
2019-03-04T09:52:26.955Z,10.70
2019-03-04T09:55:17.987Z,10.60
2019-03-04T09:58:10.419Z,10.70
2019-03-04T10:01:21.482Z,10.90
2019-03-04T10:04:43.538Z,11.10
2019-03-04T10:08:17.958Z,11.30
2019-03-04T10:11:52.402Z,11.30
2019-03-04T10:15:08.788Z,11.30
2019-03-04T10:18:48.186Z,11.30
2019-03-04T10:22:00.725Z,11.20
2019-03-04T10:25:17.537Z,11.20
2019-03-04T10:28:47.806Z,11.10
2019-03-04T10:32:06.023Z,11.10
2019-03-04T10:35:23.682Z,11.00
2019-03-04T10:44:53.253Z,10.70
2019-03-04T10:47:40.693Z,10.70
2019-03-04T10:50:28.127Z,10.70
2019-03-04T10:53:15.713Z,10.70
2019-03-04T10:56:03.193Z,10.70
2019-03-04T10:58:50.699Z,10.70
2019-03-04T11:01:38.402Z,10.80
2019-03-04T11:04:26.121Z,10.80
2019-03-04T11:07:13.675Z,10.80
2019-03-04T11:10:01.305Z,10.80
2019-03-04T11:12:48.659Z,10.80
2019-03-04T11:15:36.297Z,10.70
2019-03-04T11:18:23.580Z,10.70
2019-03-04T11:21:10.797Z,10.70
2019-03-04T11:23:57.955Z,10.70
2019-03-04T11:26:45.655Z,10.70
2019-03-04T11:29:33.229Z,10.80
2019-03-04T11:32:20.613Z,10.70
2019-03-04T11:35:09.476Z,10.70
2019-03-04T11:37:57.282Z,10.60
2019-03-04T11:40:45.298Z,10.60
2019-03-04T11:43:32.654Z,10.50
2019-03-04T11:46:22.882Z,10.50
2019-03-04T11:49:10.605Z,10.50
2019-03-04T11:51:57.686Z,10.50
2019-03-04T11:54:44.681Z,10.60
2019-03-04T11:57:32.153Z,10.60
2019-03-04T12:00:42.226Z,10.60
2019-03-04T12:03:29.972Z,10.70
2019-03-04T12:06:18.682Z,10.70
2019-03-04T12:09:22.462Z,10.70
2019-03-04T12:12:06.040Z,10.60
2019-03-04T12:14:53.338Z,10.60
2019-03-04T12:17:41.015Z,10.60
2019-03-04T12:20:30.041Z,10.60
2019-03-04T12:23:17.419Z,10.50
2019-03-04T12:26:05.119Z,10.60
2019-03-04T12:28:52.436Z,10.60
2019-03-04T12:31:48.122Z,10.60
2019-03-04T12:34:35.723Z,10.60
2019-03-04T12:37:23.486Z,10.60
2019-03-04T12:40:12.258Z,10.60
2019-03-04T12:42:59.906Z,10.60
2019-03-04T12:45:47.542Z,10.70
2019-03-04T12:48:35.492Z,10.70
2019-03-04T12:51:23.662Z,10.70
2019-03-04T12:54:11.098Z,10.80
2019-03-04T12:57:00.142Z,10.80
2019-03-04T12:59:47.622Z,10.90
2019-03-04T13:02:34.975Z,11.00
2019-03-04T13:05:22.316Z,11.10
2019-03-04T13:08:09.925Z,11.20
2019-03-04T13:10:57.966Z,11.20
2019-03-04T13:13:45.711Z,11.30
2019-03-04T13:16:33.402Z,11.40
2019-03-04T13:19:21.014Z,11.50
2019-03-04T13:22:10.602Z,11.70
2019-03-04T13:25:03.428Z,11.70
2019-03-04T13:27:53.728Z,11.60
2019-03-04T13:30:43.220Z,11.50
2019-03-04T13:33:38.908Z,11.60
2019-03-04T13:36:27.779Z,12.20
2019-03-04T13:39:15.341Z,13.00
2019-03-04T13:42:02.503Z,13.00
2019-03-04T13:44:49.871Z,13.30
2019-03-04T13:47:37.103Z,13.50
2019-03-04T13:50:25.168Z,13.50
2019-03-04T13:53:13.133Z,14.00
2019-03-04T13:56:14.107Z,13.50
2019-03-04T13:59:11.097Z,14.20
2019-03-04T14:02:05.040Z,14.70
2019-03-04T14:05:04.138Z,14.50
2019-03-04T14:08:01.567Z,13.90
2019-03-04T14:10:52.500Z,13.90
2019-03-04T14:13:43.903Z,13.90
2019-03-04T14:16:32.209Z,14.10
2019-03-04T14:19:29.716Z,14.60
2019-03-04T14:22:42.689Z,14.50
2019-03-04T14:25:52.193Z,14.50
2019-03-04T14:28:43.280Z,13.90
2019-03-04T14:31:31.224Z,14.30
2019-03-04T14:34:18.395Z,14.40
2019-03-04T14:37:05.847Z,14.60
2019-03-04T14:39:52.926Z,15.10
2019-03-04T14:42:39.983Z,14.70
2019-03-04T14:45:34.705Z,14.20
2019-03-04T14:48:28.077Z,14.60
2019-03-04T14:54:27.949Z,15.00
2019-03-04T14:57:16.010Z,15.00
2019-03-04T15:00:05.107Z,14.80
2019-03-04T15:02:52.810Z,14.70
2019-03-04T15:05:40.138Z,14.70
2019-03-04T15:08:27.623Z,14.70
2019-03-04T15:11:15.270Z,15.00
2019-03-04T15:14:02.624Z,14.60
2019-03-04T15:16:50.768Z,14.30
2019-03-04T15:19:45.197Z,14.10
2019-03-04T15:22:38.533Z,13.40
2019-03-04T15:25:29.029Z,14.00
2019-03-04T15:28:19.544Z,14.10
2019-03-04T15:31:18.337Z,14.60
2019-03-04T15:34:10.990Z,14.60
2019-03-04T15:37:01.379Z,12.80
2019-03-04T15:39:54.128Z,12.80
2019-03-04T15:42:48.505Z,12.30
2019-03-04T15:45:44.529Z,11.90
2019-03-04T15:48:33.468Z,11.60
2019-03-04T15:51:24.599Z,11.40
2019-03-04T15:54:20.449Z,11.30
2019-03-04T15:57:12.257Z,11.30
2019-03-04T16:00:11.905Z,11.10
2019-03-04T16:03:06.853Z,11.20
2019-03-04T16:06:00.705Z,11.20
2019-03-04T16:08:48.888Z,11.20
2019-03-04T16:11:37.440Z,11.20
2019-03-04T16:14:25.888Z,11.10
2019-03-04T16:17:13.928Z,10.90
2019-03-04T16:20:15.578Z,9.80
2019-03-04T16:22:57.528Z,8.50
2019-03-04T16:25:45.405Z,7.50
2019-03-04T16:28:32.884Z,6.90
2019-03-04T16:31:20.205Z,6.70
2019-03-04T16:34:07.618Z,6.40
2019-03-04T16:36:54.648Z,5.80
2019-03-04T16:39:42.048Z,5.60
2019-03-04T16:42:29.456Z,5.70
2019-03-04T16:45:17.147Z,5.80
2019-03-04T16:48:04.902Z,5.80
2019-03-04T16:50:52.506Z,5.90
2019-03-04T16:53:39.802Z,6.00
2019-03-04T16:56:27.262Z,6.10
2019-03-04T16:59:14.467Z,6.10
2019-03-04T17:02:02.086Z,6.10
2019-03-04T17:04:49.683Z,6.10
2019-03-04T17:07:37.477Z,6.30
2019-03-04T17:10:25.368Z,6.40
2019-03-04T17:13:12.667Z,6.40
2019-03-04T17:16:00.212Z,6.40
2019-03-04T17:18:47.962Z,6.40
2019-03-04T17:21:41.108Z,6.30
2019-03-04T17:24:33.645Z,6.30
2019-03-04T17:27:33.835Z,6.30
2019-03-04T17:30:21.919Z,6.30
2019-03-04T17:33:11.370Z,6.30
2019-03-04T17:36:00.436Z,6.20
2019-03-04T17:39:00.872Z,6.20
2019-03-04T17:41:49.112Z,6.10
2019-03-04T17:44:37.323Z,6.20
2019-03-04T17:47:26.322Z,6.10
2019-03-04T17:50:22.667Z,6.10
2019-03-04T17:53:34.856Z,6.10
2019-03-04T17:56:26.703Z,6.10
2019-03-04T17:59:16.466Z,6.10
2019-03-04T18:02:10.053Z,6.00
2019-03-04T18:04:57.651Z,6.00
2019-03-04T18:07:45.142Z,6.10
2019-03-04T18:10:32.381Z,6.00
2019-03-04T18:13:19.605Z,6.00
2019-03-04T18:16:07.177Z,5.90
2019-03-04T18:18:54.785Z,5.90
2019-03-04T18:21:42.642Z,5.90
2019-03-04T18:24:30.010Z,5.80
2019-03-04T18:27:24.541Z,5.90
2019-03-04T18:30:26.474Z,5.80
2019-03-04T18:33:41.371Z,5.80
2019-03-04T18:37:26.862Z,5.70
2019-03-04T18:40:37.469Z,5.80
2019-03-04T18:44:00.192Z,5.80
2019-03-04T18:49:13.033Z,5.80
2019-03-04T18:52:08.432Z,5.80
2019-03-04T18:55:12.572Z,5.80
2019-03-04T18:58:23.694Z,5.80
2019-03-04T19:01:12.183Z,5.80
2019-03-04T19:04:28.193Z,5.80
2019-03-04T19:07:18.546Z,5.80
2019-03-04T19:10:10.187Z,5.80
2019-03-04T19:13:01.611Z,5.90
2019-03-04T19:15:49.912Z,5.80
2019-03-04T19:18:48.977Z,5.80
2019-03-04T19:21:37.739Z,5.80
2019-03-04T19:24:27.898Z,5.80
2019-03-04T19:27:15.528Z,5.90
2019-03-04T19:30:15.781Z,5.90
2019-03-04T19:33:07.185Z,5.90
2019-03-04T19:35:56.886Z,5.90
2019-03-04T19:38:49.916Z,5.90
2019-03-04T19:41:45.641Z,5.90
2019-03-04T19:44:34.599Z,5.90
2019-03-04T19:47:22.753Z,5.90
2019-03-04T19:50:10.699Z,5.90
2019-03-04T19:53:02.626Z,5.80
2019-03-04T19:55:50.771Z,5.70
2019-03-04T19:58:39.106Z,5.60
2019-03-04T20:01:26.865Z,5.40
2019-03-04T20:04:14.520Z,5.20
2019-03-04T20:07:02.229Z,5.10
2019-03-04T20:09:49.713Z,5.00
2019-03-04T20:12:37.423Z,5.00
2019-03-04T20:15:24.927Z,4.90
2019-03-04T20:18:12.442Z,4.80
2019-03-04T20:21:00.414Z,4.80
2019-03-04T20:23:47.902Z,4.70
2019-03-04T20:26:35.807Z,4.60
2019-03-04T20:29:23.503Z,4.60
2019-03-04T20:32:16.804Z,4.50
2019-03-04T20:35:07.414Z,4.50
2019-03-04T20:37:56.957Z,4.50
2019-03-04T20:40:53.003Z,4.60
2019-03-04T20:43:41.561Z,4.60
2019-03-04T20:46:34.511Z,4.70
2019-03-04T20:49:22.314Z,4.60
2019-03-04T20:52:10.058Z,4.60
2019-03-04T20:54:58.180Z,4.70
2019-03-04T20:57:45.842Z,4.60
2019-03-04T21:00:34.513Z,4.70
2019-03-04T21:03:23.043Z,4.60
2019-03-04T21:06:10.699Z,4.60
2019-03-04T21:08:58.265Z,4.60
2019-03-04T21:11:46.065Z,4.60
2019-03-04T21:14:33.918Z,4.60
2019-03-04T21:17:21.453Z,4.60
2019-03-04T21:20:09.499Z,4.60
2019-03-04T21:22:57.084Z,4.60
2019-03-04T21:26:02.005Z,4.70
2019-03-04T21:29:30.280Z,4.70
2019-03-04T21:32:55.936Z,4.70
2019-03-04T21:36:20.181Z,4.70
2019-03-04T21:39:11.438Z,4.70
2019-03-04T21:42:06.268Z,4.70
2019-03-04T21:45:09.717Z,4.70
2019-03-04T21:48:01.965Z,4.70
2019-03-04T21:50:57.177Z,4.70
2019-03-04T21:53:46.664Z,4.70
2019-03-04T21:56:51.981Z,4.60
2019-03-04T21:59:39.364Z,4.70
2019-03-04T22:02:50.537Z,4.70
2019-03-04T22:05:49.523Z,4.70
2019-03-04T22:08:27.675Z,4.80
2019-03-04T22:11:17.174Z,4.80
2019-03-04T22:14:05.520Z,4.90
2019-03-04T22:16:53.109Z,4.90
2019-03-04T22:19:41.027Z,4.90
2019-03-04T22:22:28.632Z,5.00
2019-03-04T22:25:16.748Z,5.00
2019-03-04T22:28:04.238Z,5.00
2019-03-04T22:30:51.445Z,5.10
2019-03-04T22:33:38.702Z,5.20
2019-03-04T22:36:26.182Z,5.20
2019-03-04T22:39:13.575Z,5.10
2019-03-04T22:42:01.308Z,5.10
2019-03-04T22:44:48.366Z,5.00
2019-03-04T22:47:35.584Z,4.90
2019-03-04T22:50:23.013Z,4.90
2019-03-04T22:53:10.463Z,5.00
2019-03-04T22:55:57.988Z,5.00
2019-03-04T22:58:45.750Z,4.90
2019-03-04T23:01:54.181Z,4.70
2019-03-04T23:05:00.482Z,4.70
2019-03-04T23:07:53.575Z,4.70
2019-03-04T23:10:43.962Z,4.60
2019-03-04T23:13:55.187Z,4.60
2019-03-04T23:16:43.074Z,4.60
2019-03-04T23:19:31.111Z,4.60
2019-03-04T23:22:18.681Z,4.60
2019-03-04T23:25:07.405Z,4.60
2019-03-04T23:27:55.231Z,4.60
2019-03-04T23:30:42.937Z,4.50
2019-03-04T23:33:30.385Z,4.50
2019-03-04T23:36:17.819Z,4.40
2019-03-04T23:39:06.373Z,4.40
2019-03-04T23:41:53.909Z,4.40
2019-03-04T23:44:41.594Z,4.30
2019-03-04T23:47:29.542Z,4.20
2019-03-04T23:50:19.041Z,4.30
2019-03-04T23:53:06.537Z,4.30
2019-03-04T23:55:54.409Z,4.20
2019-03-04T23:58:42.239Z,4.30
